createdAt,value
2023-02-11T00:02:05.199Z,4.38
2023-02-11T00:04:32.033Z,3.53
2023-02-11T00:06:58.405Z,3.80
2023-02-11T00:09:24.790Z,3.38
2023-02-11T00:11:51.054Z,4.30
2023-02-11T00:14:17.334Z,3.60
2023-02-11T00:16:43.685Z,4.05
2023-02-11T00:19:09.988Z,3.80
2023-02-11T00:21:36.374Z,3.78
2023-02-11T00:24:02.730Z,3.95
2023-02-11T00:26:30.968Z,3.80
2023-02-11T00:28:57.419Z,3.42
2023-02-11T00:31:24.235Z,3.38
2023-02-11T00:33:50.910Z,3.45
2023-02-11T00:36:18.962Z,3.88
2023-02-11T00:38:45.922Z,3.22
2023-02-11T00:41:13.344Z,3.65
2023-02-11T00:43:40.282Z,3.75
2023-02-11T00:46:06.783Z,3.33
2023-02-11T00:48:33.490Z,3.85
2023-02-11T00:50:59.873Z,3.75
2023-02-11T00:53:26.269Z,3.80
2023-02-11T00:55:52.721Z,3.38
2023-02-11T00:58:19.155Z,3.90
2023-02-11T01:00:45.491Z,3.45
2023-02-11T01:03:11.830Z,3.55
2023-02-11T01:05:38.913Z,4.00
2023-02-11T01:08:05.439Z,4.30
2023-02-11T01:10:31.870Z,4.00
2023-02-11T01:12:58.471Z,4.00
2023-02-11T01:15:24.808Z,4.63
2023-02-11T01:17:51.142Z,4.47
2023-02-11T01:20:19.662Z,4.95
2023-02-11T01:22:46.066Z,4.45
2023-02-11T01:25:12.406Z,4.47
2023-02-11T01:27:38.779Z,5.22
2023-02-11T01:30:08.882Z,4.93
2023-02-11T01:32:35.460Z,5.13
2023-02-11T01:35:01.985Z,4.57
2023-02-11T01:37:28.276Z,5.28
2023-02-11T01:39:54.674Z,5.00
2023-02-11T01:42:22.804Z,4.63
2023-02-11T01:44:53.507Z,5.13
2023-02-11T01:47:20.904Z,5.40
2023-02-11T01:49:56.422Z,5.15
2023-02-11T01:52:34.900Z,5.00
2023-02-11T01:55:21.472Z,5.30
2023-02-11T01:57:50.673Z,4.90
2023-02-11T02:00:24.975Z,5.00
2023-02-11T02:03:03.276Z,4.70
2023-02-11T02:05:39.114Z,4.43
2023-02-11T02:08:11.442Z,5.20
2023-02-11T02:10:40.693Z,5.57
2023-02-11T02:13:07.122Z,5.57
2023-02-11T02:15:34.509Z,5.15
2023-02-11T02:18:03.836Z,5.13
2023-02-11T02:20:49.119Z,4.78
2023-02-11T02:23:21.226Z,5.13
2023-02-11T02:25:50.715Z,5.15
2023-02-11T02:28:23.276Z,4.20
2023-02-11T02:30:49.597Z,5.45
2023-02-11T02:33:31.001Z,4.90
2023-02-11T02:36:16.362Z,5.50
2023-02-11T02:38:55.613Z,5.30
2023-02-11T02:41:41.143Z,5.00
2023-02-11T02:44:08.297Z,5.25
2023-02-11T02:46:35.333Z,5.25
2023-02-11T02:49:02.190Z,5.03
2023-02-11T02:51:47.504Z,5.43
2023-02-11T02:54:13.892Z,5.65
2023-02-11T02:56:59.258Z,5.78
2023-02-11T02:59:25.510Z,5.70
2023-02-11T03:02:08.734Z,5.82
2023-02-11T03:04:52.822Z,6.07
2023-02-11T03:07:28.201Z,6.45
2023-02-11T03:10:05.522Z,6.07
2023-02-11T03:12:33.424Z,6.03
2023-02-11T03:15:01.445Z,6.72
2023-02-11T03:17:28.628Z,6.75
2023-02-11T03:19:55.170Z,6.82
2023-02-11T03:22:30.551Z,7.13
2023-02-11T03:24:56.947Z,6.97
2023-02-11T03:27:29.022Z,6.53
2023-02-11T03:30:15.633Z,7.55
2023-02-11T03:32:49.082Z,6.63
2023-02-11T03:35:19.800Z,7.80
2023-02-11T03:38:01.954Z,7.55
2023-02-11T03:40:32.099Z,7.40
2023-02-11T03:43:00.390Z,8.43
2023-02-11T03:45:27.513Z,7.68
2023-02-11T03:47:59.983Z,7.93
2023-02-11T03:50:27.397Z,8.35
2023-02-11T03:52:54.978Z,8.70
2023-02-11T03:55:23.010Z,8.05
2023-02-11T03:57:49.358Z,8.27
2023-02-11T04:00:15.805Z,8.75
2023-02-11T04:02:42.960Z,8.93
2023-02-11T04:05:10.162Z,9.13
2023-02-11T04:07:36.471Z,9.68
2023-02-11T04:10:03.189Z,9.63
2023-02-11T04:12:29.459Z,10.57
2023-02-11T04:14:55.864Z,9.48
2023-02-11T04:17:22.232Z,9.80
2023-02-11T04:19:48.564Z,10.48
2023-02-11T04:22:15.023Z,10.05
2023-02-11T04:24:43.948Z,10.32
2023-02-11T04:27:12.075Z,10.20
2023-02-11T04:29:38.434Z,9.95
2023-02-11T04:32:04.970Z,9.73
2023-02-11T04:34:31.872Z,10.48
2023-02-11T04:36:58.228Z,10.90
2023-02-11T04:39:24.532Z,10.23
2023-02-11T04:41:51.034Z,11.23
2023-02-11T04:44:17.474Z,11.55
2023-02-11T04:46:43.820Z,11.00
2023-02-11T04:49:12.751Z,10.27
2023-02-11T04:51:39.089Z,10.00
2023-02-11T04:54:05.465Z,11.00
2023-02-11T04:56:31.812Z,11.38
2023-02-11T04:58:58.106Z,11.27
2023-02-11T05:01:24.606Z,10.65
2023-02-11T05:03:51.173Z,10.57
2023-02-11T05:06:17.936Z,11.85
2023-02-11T05:08:44.289Z,10.23
2023-02-11T05:11:18.223Z,11.15
2023-02-11T05:13:44.757Z,11.70
2023-02-11T05:16:11.849Z,11.57
2023-02-11T05:18:38.808Z,11.70
2023-02-11T05:21:09.461Z,11.02
2023-02-11T05:23:36.450Z,12.05
2023-02-11T05:26:03.092Z,11.90
2023-02-11T05:28:29.846Z,12.00
2023-02-11T05:30:56.350Z,11.45
2023-02-11T05:33:22.814Z,12.43
2023-02-11T05:35:49.536Z,11.95
2023-02-11T05:38:16.445Z,12.77
2023-02-11T05:40:42.795Z,12.45
2023-02-11T05:43:09.076Z,12.85
2023-02-11T05:45:35.555Z,12.43
2023-02-11T05:48:01.932Z,13.15
2023-02-11T05:50:28.265Z,12.65
2023-02-11T05:52:54.627Z,13.77
2023-02-11T05:55:21.138Z,13.57
2023-02-11T05:57:47.537Z,14.05
2023-02-11T06:00:14.358Z,13.85
2023-02-11T06:02:40.757Z,13.60
2023-02-11T06:05:07.348Z,14.02
2023-02-11T06:07:33.683Z,14.88
2023-02-11T06:10:00.108Z,14.10
2023-02-11T06:12:27.234Z,14.05
2023-02-11T06:14:53.532Z,15.23
2023-02-11T06:17:19.828Z,14.00
2023-02-11T06:19:46.111Z,14.88
2023-02-11T06:22:12.429Z,14.30
2023-02-11T06:24:59.843Z,15.73
2023-02-11T06:27:25.174Z,14.07
2023-02-11T06:29:52.806Z,13.93
2023-02-11T06:32:39.597Z,14.35
2023-02-11T06:35:05.956Z,15.13
2023-02-11T06:37:33.608Z,16.00
2023-02-11T06:39:59.921Z,14.98
2023-02-11T06:42:26.312Z,16.10
2023-02-11T06:44:52.662Z,15.50
2023-02-11T06:47:19.021Z,16.23
2023-02-11T06:49:45.770Z,16.27
2023-02-11T06:52:12.095Z,15.52
2023-02-11T06:54:38.507Z,16.00
2023-02-11T06:57:04.837Z,15.68
2023-02-11T06:59:31.171Z,17.17
2023-02-11T07:01:57.573Z,16.52
2023-02-11T07:04:24.036Z,17.95
2023-02-11T07:06:50.343Z,16.98
2023-02-11T07:09:17.022Z,16.42
2023-02-11T07:11:43.382Z,18.35
2023-02-11T07:14:10.236Z,18.63
2023-02-11T07:16:36.873Z,18.52
2023-02-11T07:19:03.236Z,17.23
2023-02-11T07:21:29.631Z,16.80
2023-02-11T07:23:55.985Z,16.50
2023-02-11T07:26:23.247Z,16.73
2023-02-11T07:28:50.139Z,16.70
2023-02-11T07:31:17.907Z,17.50
2023-02-11T07:33:45.781Z,17.55
2023-02-11T07:36:13.158Z,15.95
2023-02-11T07:38:39.666Z,18.02
2023-02-11T07:41:07.519Z,17.50
2023-02-11T07:43:34.582Z,17.48
2023-02-11T07:46:20.449Z,17.27
2023-02-11T07:48:47.048Z,18.05
2023-02-11T07:51:18.108Z,18.00
2023-02-11T07:53:44.551Z,18.70
2023-02-11T07:56:12.036Z,17.42
2023-02-11T07:58:38.451Z,17.73
2023-02-11T08:01:09.642Z,19.13
2023-02-11T08:03:36.696Z,18.13
2023-02-11T08:06:05.735Z,17.77
2023-02-11T08:08:32.062Z,18.50
2023-02-11T08:10:58.357Z,18.75
2023-02-11T08:13:26.923Z,17.58
2023-02-11T08:15:53.281Z,18.30
2023-02-11T08:18:19.658Z,19.02
2023-02-11T08:20:46.027Z,19.00
2023-02-11T08:23:12.359Z,18.65
2023-02-11T08:25:38.644Z,18.25
2023-02-11T08:28:05.002Z,18.63
2023-02-11T08:30:31.347Z,19.77
2023-02-11T08:32:57.755Z,18.98
2023-02-11T08:35:26.058Z,18.70
2023-02-11T08:37:53.086Z,18.33
2023-02-11T08:40:20.125Z,18.67
2023-02-11T08:42:46.521Z,17.55
2023-02-11T08:45:12.858Z,18.63
2023-02-11T08:47:39.596Z,18.48
2023-02-11T08:50:06.119Z,17.83
2023-02-11T08:52:32.588Z,19.10
2023-02-11T08:55:01.520Z,18.80
2023-02-11T08:57:27.908Z,18.52
2023-02-11T08:59:54.266Z,19.02
2023-02-11T09:02:20.615Z,17.85
2023-02-11T09:04:46.968Z,18.55
2023-02-11T09:07:13.257Z,18.60
2023-02-11T09:09:39.589Z,18.58
2023-02-11T09:12:06.010Z,17.90
2023-02-11T09:14:32.306Z,19.83
2023-02-11T09:16:58.760Z,18.67
2023-02-11T09:19:25.102Z,18.63
2023-02-11T09:21:51.483Z,18.50
2023-02-11T09:24:18.756Z,19.42
2023-02-11T09:26:45.383Z,18.17
2023-02-11T09:29:11.854Z,19.48
2023-02-11T09:31:38.530Z,18.30
2023-02-11T09:34:06.011Z,17.80
2023-02-11T09:36:34.908Z,18.20
2023-02-11T09:42:05.956Z,17.85
2023-02-11T09:44:33.994Z,17.27
2023-02-11T09:47:05.892Z,16.98
2023-02-11T09:49:34.981Z,18.08
2023-02-11T09:52:24.627Z,19.15
2023-02-11T09:54:55.375Z,16.92
2023-02-11T09:57:28.602Z,18.80
2023-02-11T09:59:56.279Z,17.65
2023-02-11T10:02:27.553Z,17.10
2023-02-11T10:05:03.176Z,18.38
2023-02-11T10:07:52.969Z,18.02
2023-02-11T10:10:38.130Z,18.45
2023-02-11T10:13:13.620Z,18.25
2023-02-11T10:15:58.660Z,17.02
2023-02-11T10:18:46.361Z,17.48
2023-02-11T10:21:17.208Z,17.70
2023-02-11T10:26:15.299Z,15.55
2023-02-11T10:28:43.816Z,15.00
2023-02-11T10:31:30.635Z,15.38
2023-02-11T10:34:07.455Z,16.10
2023-02-11T10:36:34.991Z,15.20
2023-02-11T10:39:13.662Z,14.70
2023-02-11T10:41:43.256Z,14.15
2023-02-11T10:44:18.625Z,15.02
2023-02-11T10:46:45.205Z,13.32
2023-02-11T10:49:31.483Z,13.02
2023-02-11T10:52:12.639Z,11.50
2023-02-11T10:54:38.948Z,12.20
2023-02-11T10:57:05.273Z,11.60
2023-02-11T10:59:34.380Z,11.48
2023-02-11T11:02:01.752Z,11.13
2023-02-11T11:04:32.881Z,11.25
2023-02-11T11:07:17.613Z,11.63
2023-02-11T11:09:46.408Z,11.32
2023-02-11T11:12:31.221Z,11.57
2023-02-11T11:15:02.660Z,11.30
2023-02-11T11:17:29.621Z,11.80
2023-02-11T11:20:14.839Z,10.45
2023-02-11T11:22:41.860Z,12.32
2023-02-11T11:25:25.723Z,10.27
2023-02-11T11:27:54.111Z,11.43
2023-02-11T11:30:20.862Z,11.23
2023-02-11T11:32:47.301Z,10.38
2023-02-11T11:35:21.657Z,10.85
2023-02-11T11:37:53.423Z,9.63
2023-02-11T11:40:38.306Z,9.65
2023-02-11T11:43:07.433Z,9.93
2023-02-11T11:45:33.829Z,9.68
2023-02-11T11:48:03.382Z,8.70
2023-02-11T11:50:35.793Z,9.15
2023-02-11T11:53:07.657Z,9.82
2023-02-11T11:55:34.095Z,9.25
2023-02-11T11:58:00.608Z,8.25
2023-02-11T12:00:29.755Z,8.20
2023-02-11T12:03:02.378Z,9.30
2023-02-11T12:05:37.571Z,8.45
2023-02-11T12:08:15.228Z,8.05
2023-02-11T12:10:41.549Z,7.70
2023-02-11T12:13:13.750Z,8.23
2023-02-11T12:16:03.361Z,8.13
2023-02-11T12:18:38.712Z,6.80
2023-02-11T12:21:23.814Z,8.05
2023-02-11T12:23:59.696Z,7.78
2023-02-11T12:26:35.939Z,7.43
2023-02-11T12:29:02.254Z,7.53
2023-02-11T12:31:46.849Z,7.47
2023-02-11T12:34:15.958Z,8.20
2023-02-11T12:36:42.382Z,6.72
2023-02-11T12:39:29.010Z,7.28
2023-02-11T12:42:33.124Z,7.70
2023-02-11T12:45:06.872Z,7.18
2023-02-11T12:47:52.409Z,6.35
2023-02-11T12:50:24.905Z,6.68
2023-02-11T12:53:01.333Z,7.10
2023-02-11T12:55:29.872Z,7.60
2023-02-11T12:58:19.110Z,7.95
2023-02-11T13:00:49.139Z,8.13
2023-02-11T13:03:22.512Z,10.47
2023-02-11T13:06:26.610Z,10.50
2023-02-11T13:09:03.257Z,9.88
2023-02-11T13:11:36.344Z,9.25
2023-02-11T13:14:12.612Z,7.53
2023-02-11T13:16:46.709Z,7.10
2023-02-11T13:19:13.055Z,5.90
2023-02-11T13:22:08.573Z,4.97
2023-02-11T13:24:44.356Z,5.82
2023-02-11T13:27:15.278Z,5.97
2023-02-11T13:30:03.050Z,6.38
2023-02-11T13:32:50.740Z,5.65
2023-02-11T13:35:35.863Z,5.63
2023-02-11T13:38:03.376Z,6.43
2023-02-11T13:40:34.366Z,5.72
2023-02-11T13:43:02.448Z,5.20
2023-02-11T13:45:38.560Z,5.65
2023-02-11T13:48:06.650Z,5.97
2023-02-11T13:50:37.113Z,5.15
2023-02-11T13:53:04.900Z,5.40
2023-02-11T13:55:32.156Z,4.72
2023-02-11T13:58:07.651Z,4.97
2023-02-11T14:00:34.080Z,5.50
2023-02-11T14:03:39.424Z,5.45
2023-02-11T14:06:27.469Z,5.45
2023-02-11T14:09:09.139Z,4.80
2023-02-11T14:11:44.756Z,5.65
2023-02-11T14:14:15.829Z,4.63
2023-02-11T14:17:02.422Z,4.80
2023-02-11T14:19:36.484Z,4.55
2023-02-11T14:22:13.415Z,4.50
2023-02-11T14:24:45.400Z,5.05
2023-02-11T14:27:21.379Z,4.80
2023-02-11T14:29:47.735Z,4.88
2023-02-11T14:32:29.352Z,4.97
2023-02-11T14:35:07.885Z,5.15
2023-02-11T14:37:50.268Z,5.13
2023-02-11T14:40:32.029Z,5.35
2023-02-11T14:43:03.296Z,5.28
2023-02-11T14:45:31.053Z,4.82
2023-02-11T14:48:10.316Z,5.20
2023-02-11T14:50:42.949Z,5.13
2023-02-11T14:53:16.942Z,5.40
2023-02-11T14:55:44.648Z,4.72
2023-02-11T14:58:16.202Z,4.63
2023-02-11T15:00:58.098Z,4.57
2023-02-11T15:03:27.393Z,4.70
2023-02-11T15:06:14.027Z,4.20
2023-02-11T15:08:43.624Z,4.70
2023-02-11T15:11:12.132Z,4.72
2023-02-11T15:13:38.881Z,5.28
2023-02-11T15:16:06.865Z,4.72
2023-02-11T15:18:37.258Z,4.88
2023-02-11T15:21:04.020Z,5.05
2023-02-11T15:23:31.272Z,4.78
2023-02-11T15:25:58.079Z,5.03
2023-02-11T15:28:26.708Z,4.75
2023-02-11T15:30:57.278Z,5.03
2023-02-11T15:33:25.417Z,4.93
2023-02-11T15:35:51.963Z,5.07
2023-02-11T15:38:18.517Z,4.93
2023-02-11T15:40:54.645Z,5.07
2023-02-11T15:43:21.430Z,4.90
2023-02-11T15:46:01.735Z,5.30
2023-02-11T15:51:57.796Z,4.80
2023-02-11T15:54:26.742Z,4.90
2023-02-11T15:56:55.534Z,5.20
2023-02-11T15:59:41.262Z,5.00
2023-02-11T16:02:07.834Z,5.40
2023-02-11T16:04:34.495Z,5.70
2023-02-11T16:07:00.869Z,5.80
2023-02-11T16:09:31.741Z,6.30
2023-02-11T16:14:29.459Z,5.45
2023-02-11T16:16:58.666Z,5.43
2023-02-11T16:19:26.355Z,6.75
2023-02-11T16:21:53.508Z,7.35
2023-02-11T16:24:24.387Z,6.22
2023-02-11T16:29:23.907Z,5.70
2023-02-11T16:31:50.497Z,5.65
2023-02-11T16:34:19.126Z,6.07
2023-02-11T16:36:46.332Z,5.63
2023-02-11T16:39:13.076Z,5.70
2023-02-11T16:41:39.369Z,5.82
2023-02-11T16:44:05.705Z,6.45
2023-02-11T16:46:32.293Z,6.22
2023-02-11T16:49:05.781Z,5.88
2023-02-11T16:51:32.141Z,6.40
2023-02-11T16:53:58.466Z,5.82
2023-02-11T16:56:25.175Z,5.25
2023-02-11T16:58:51.571Z,5.63
2023-02-11T17:01:18.000Z,5.43
2023-02-11T17:03:45.594Z,5.97
2023-02-11T17:06:13.543Z,5.93
2023-02-11T17:08:42.982Z,6.05
2023-02-11T17:11:09.708Z,5.68
2023-02-11T17:13:36.693Z,6.40
2023-02-11T17:16:03.051Z,6.20
2023-02-11T17:18:29.831Z,5.65
2023-02-11T17:20:56.168Z,5.80
2023-02-11T17:23:22.492Z,6.43
2023-02-11T17:25:54.546Z,6.22
2023-02-11T17:28:21.419Z,5.85
2023-02-11T17:30:48.509Z,6.20
2023-02-11T17:33:14.832Z,5.78
2023-02-11T17:35:41.106Z,5.72
2023-02-11T17:38:07.510Z,6.45
2023-02-11T17:40:36.777Z,7.07
2023-02-11T17:43:03.597Z,6.55
2023-02-11T17:45:30.090Z,6.57
2023-02-11T17:47:56.380Z,6.35
2023-02-11T17:50:23.285Z,6.13
2023-02-11T17:52:49.906Z,5.78
2023-02-11T17:55:16.264Z,7.30
2023-02-11T17:57:42.640Z,7.28
2023-02-11T18:00:09.571Z,7.95
2023-02-11T18:02:35.977Z,7.18
2023-02-11T18:05:02.461Z,7.25
2023-02-11T18:07:30.587Z,6.43
2023-02-11T18:10:12.638Z,6.88
2023-02-11T18:12:39.086Z,6.72
2023-02-11T18:15:06.338Z,7.95
2023-02-11T18:17:33.094Z,8.00
2023-02-11T18:19:59.805Z,7.57
2023-02-11T18:22:26.262Z,7.88
2023-02-11T18:24:53.661Z,7.65
2023-02-11T18:27:20.451Z,7.78
2023-02-11T18:29:46.945Z,7.47
2023-02-11T18:32:13.788Z,7.28
2023-02-11T18:34:40.880Z,9.55
2023-02-11T18:37:07.299Z,9.25
2023-02-11T18:39:39.035Z,9.27
2023-02-11T18:42:08.754Z,10.73
2023-02-11T18:44:35.505Z,11.95
2023-02-11T18:47:02.044Z,11.00
2023-02-11T18:49:28.601Z,11.57
2023-02-11T18:51:55.294Z,10.77
2023-02-11T18:54:21.811Z,10.73
2023-02-11T18:56:48.267Z,9.85
2023-02-11T18:59:14.811Z,10.10
2023-02-11T19:01:43.347Z,9.65
2023-02-11T19:04:09.851Z,9.73
2023-02-11T19:06:37.379Z,9.25
2023-02-11T19:09:09.811Z,9.60
2023-02-11T19:11:53.821Z,9.40
2023-02-11T19:14:36.446Z,8.90
2023-02-11T19:17:04.163Z,10.02
2023-02-11T19:19:31.452Z,9.88
2023-02-11T19:21:58.732Z,8.60
2023-02-11T19:24:25.491Z,9.55
2023-02-11T19:26:52.807Z,17.70
2023-02-11T19:29:22.866Z,18.70
2023-02-11T19:31:49.996Z,14.20
2023-02-11T19:34:17.105Z,18.23
2023-02-11T19:36:43.570Z,17.38
2023-02-11T19:39:10.139Z,15.40
2023-02-11T19:41:44.774Z,11.77
2023-02-11T19:47:42.940Z,9.52
2023-02-11T19:50:33.202Z,8.97
2023-02-11T19:53:02.283Z,8.07
2023-02-11T19:55:28.841Z,7.78
2023-02-11T19:57:55.222Z,8.38
2023-02-11T20:00:21.728Z,8.38
2023-02-11T20:02:48.161Z,7.85
2023-02-11T20:05:14.497Z,8.85
2023-02-11T20:07:40.841Z,8.77
2023-02-11T20:10:08.044Z,8.68
2023-02-11T20:12:34.441Z,9.15
2023-02-11T20:15:00.948Z,9.23
2023-02-11T20:17:27.447Z,12.10
2023-02-11T20:19:53.761Z,11.05
2023-02-11T20:22:20.042Z,11.02
2023-02-11T20:24:46.455Z,13.50
2023-02-11T20:27:12.897Z,14.02
2023-02-11T20:29:39.865Z,15.95
2023-02-11T20:32:07.046Z,16.77
2023-02-11T20:34:33.525Z,18.33
2023-02-11T20:36:59.920Z,18.33
2023-02-11T20:39:26.737Z,13.93
2023-02-11T20:41:53.934Z,11.85
2023-02-11T20:44:22.295Z,11.18
2023-02-11T20:46:48.907Z,11.32
2023-02-11T20:49:16.639Z,11.68
2023-02-11T20:51:43.073Z,12.25
2023-02-11T20:54:17.882Z,11.25
2023-02-11T20:56:47.731Z,10.55
2023-02-11T20:59:14.369Z,12.13
2023-02-11T21:01:42.369Z,14.13
2023-02-11T21:04:13.712Z,11.82
2023-02-11T21:06:41.544Z,10.77
2023-02-11T21:09:08.579Z,10.38
2023-02-11T21:11:35.311Z,10.50
2023-02-11T21:14:02.345Z,9.63
2023-02-11T21:22:59.193Z,9.32
2023-02-11T21:25:25.527Z,10.05
2023-02-11T21:27:51.814Z,9.32
2023-02-11T21:30:18.842Z,9.95
2023-02-11T21:32:51.046Z,10.30
2023-02-11T21:35:17.464Z,10.35
2023-02-11T21:37:43.878Z,10.90
2023-02-11T21:40:12.617Z,10.35
2023-02-11T21:42:40.841Z,12.10
2023-02-11T21:45:08.952Z,11.38
2023-02-11T21:47:37.153Z,11.07
2023-02-11T21:50:04.586Z,10.70
2023-02-11T21:52:32.340Z,10.27
2023-02-11T21:54:58.863Z,9.57
2023-02-11T21:57:25.467Z,9.60
2023-02-11T22:00:16.907Z,9.82
2023-02-11T22:02:48.277Z,10.35
2023-02-11T22:05:18.385Z,11.00
2023-02-11T22:07:47.393Z,11.43
2023-02-11T22:10:14.495Z,10.77
2023-02-11T22:13:01.087Z,10.75
2023-02-11T22:15:39.272Z,10.73
2023-02-11T22:18:05.939Z,10.88
2023-02-11T22:20:34.872Z,10.82
2023-02-11T22:23:26.257Z,10.35
2023-02-11T22:29:21.439Z,10.85
2023-02-11T22:34:37.207Z,9.95
2023-02-11T22:37:12.685Z,10.50
2023-02-11T22:39:48.297Z,9.90
2023-02-11T22:42:27.095Z,10.23
2023-02-11T22:54:30.076Z,11.50
2023-02-11T23:02:49.057Z,10.20
2023-02-11T23:04:06.593Z,9.82
2023-02-11T23:05:28.012Z,10.43
2023-02-11T23:09:30.493Z,10.80
2023-02-11T23:28:21.152Z,10.02
2023-02-11T23:37:20.325Z,11.52
2023-02-11T23:43:51.329Z,11.32
2023-02-11T23:53:38.432Z,11.30
2023-02-11T23:56:33.851Z,12.20
2023-02-11T23:59:13.982Z,12.40
